Flight Number: EUR2340 Duration: 3:00
Departure: Antalya (LTAI) at 06:00 Distance: 1080 Nm
Arrival: Munich Int'l (EDDM) at 09:00 Equipment: A321

Weather Information
Antalya, Turkey (LTAI) 36-42N 030-44E 57M May 23, 2018 - 07:50 PM EDT / 2018.05.23 2350 UTC
Wind: from the NNW (330 degrees) at 3 MPH (3 KT) (direction variable):0
Visibility: greater than 7 mile(s):0 Temperature: 69 F (21 C) Dew Point: 60 F (16 C) Relative Humidity: 73% Pressure (altimeter): 29.88 in. Hg (1012 hPa)
ob: LTAI 232350Z 33003KT 300V010 CAVOK 21/16 Q1012 NOSIG cycle: 0
Sunrise: 02:45 Sunset: 17:01 (UTC)

Munchen, Germany (EDDM) 48-21N 011-47E May 23, 2018 - 07:50 PM EDT / 2018.05.23 2350 UTC
Wind: from the W (270 degrees) at 3 MPH (3 KT):0
Visibility: greater than 7 mile(s):0
Sky conditions: mostly cloudy Weather: light rain showers; Cumulonimbus clouds observed Temperature: 59 F (15 C) Dew Point: 55 F (13 C) Relative Humidity: 87% Pressure (altimeter): 30.06 in. Hg (1018 hPa)
ob: EDDM 232350Z 27003KT 9999 -SHRA FEW016 SCT030CB BKN100 15/13 Q1018 TEMPO SHRA cycle: 0
Sunrise: 03:26 Sunset: 18:53 (UTC)

TAF:2018/05/23 18:27 TAF EDDM 231700Z 2318/2424 VRB03KT 9999 SCT035 PROB30 TEMPO 2318/2323 16012KT 3000 TSRA BKN030CB TEMPO 2323/2409 SHRA BKN010 BKN030CB PROB30 TEMPO 2405/2407 15012KT 3000 TSRA BKN006 BKN020CB PROB40 TEMPO 2409/2416 26015G25KT 3000 TSRAGR BKN012 BKN025CB BECMG 2420/2423 2000 BCFG

Previous Pireps for this route
Date Aircraft Flight time Fuel used Landing rate On time
2015-01-07A32102.5417912-205Charter
2016-01-18A32103.0616984-2No
2016-04-05A32103.3526587-465.38No
2016-09-30A330-20002.3440823-171Charter
(pireps marked green are flown by you)

Route map